Pagrindinis puslapis
METAR-TAF:

METAR-TAF

Oro uostai :

Gombe Lawanti International Airport

Gombe, Nigerija

platuma: 10-18-19N, ilguma: 10-54-31E, Aukštis: 505 m

METAR: trūkstamas

Laikas: 04:04 (03:04 UTC)

Prognozė

Ataskaita buvo paskelbta 4 valandos ir 4 minutes, ne 23:00 UTC
Prognozė galioja nuo 22 metu 00 UTC su 23 metu 06 UTC
Vėjas 10 kt iš Pietvakarių
Matomumas 10 km arba daugiau
nėra debesų žemiau 1500 m ir nėra kamuolinių lietaus debesų

TAF: DNGO 212300Z 2200/2306 23010KT CAVOK

Orai ataskaitas ir orų prognozės (METAR, TAF).

turimą stotys yra geltonos ir raudonos taškus žemėlapyje.

Perkelti pele per norėdami pamatyti stoties vardą.

Tada spustelėkite, norėdami matyti oro stebėjimo ir prognozės.

Norėdami pakeisti žemėlapį: spustelėkite ant žalios mygtukų su juodo kryžiaus žemyn,; žalią mygtuką su brūkšneliu, jei norite nutolinti; arba žalių rodyklių gretimoms žemėlapius.


METAR-TAF: